createdAt,value
2022-07-29T00:01:58.743Z,5.37
2022-07-29T00:04:29.831Z,5.80
2022-07-29T00:07:00.862Z,6.00
2022-07-29T00:09:33.171Z,6.10
2022-07-29T00:12:12.985Z,6.03
2022-07-29T00:14:45.082Z,6.43
2022-07-29T00:17:19.093Z,6.30
2022-07-29T00:19:50.361Z,6.37
2022-07-29T00:22:21.798Z,6.83
2022-07-29T00:24:52.738Z,5.73
2022-07-29T00:27:24.899Z,6.90
2022-07-29T00:29:55.951Z,6.00
2022-07-29T00:32:26.996Z,6.67
2022-07-29T00:35:16.773Z,5.83
2022-07-29T00:37:47.769Z,7.23
2022-07-29T00:40:18.779Z,6.57
2022-07-29T00:42:55.769Z,6.30
2022-07-29T00:45:27.031Z,6.77
2022-07-29T00:47:58.292Z,7.33
2022-07-29T00:50:29.476Z,7.10
2022-07-29T00:53:01.226Z,6.00
2022-07-29T00:55:32.353Z,6.33
2022-07-29T00:58:04.679Z,6.47
2022-07-29T01:00:35.789Z,6.23
2022-07-29T01:03:06.808Z,6.07
2022-07-29T01:05:48.056Z,6.30
2022-07-29T01:08:23.979Z,7.57
2022-07-29T01:10:55.865Z,6.00
2022-07-29T01:13:27.882Z,6.53
2022-07-29T01:16:10.328Z,5.83
2022-07-29T01:18:48.148Z,6.97
2022-07-29T01:21:58.897Z,6.33
2022-07-29T01:25:15.937Z,6.20
2022-07-29T01:28:22.176Z,7.27
2022-07-29T01:31:04.042Z,7.23
2022-07-29T01:33:51.789Z,7.00
2022-07-29T01:36:43.509Z,7.20
2022-07-29T01:39:28.516Z,8.40
2022-07-29T01:42:17.039Z,7.90
2022-07-29T01:45:15.505Z,8.03
2022-07-29T01:48:18.105Z,8.10
2022-07-29T01:50:54.997Z,8.13
2022-07-29T01:53:51.975Z,7.33
2022-07-29T01:56:25.311Z,7.80
2022-07-29T01:58:58.086Z,7.40
2022-07-29T02:01:32.411Z,7.43
2022-07-29T02:04:07.229Z,8.57
2022-07-29T02:06:42.121Z,7.43
2022-07-29T02:09:16.453Z,7.07
2022-07-29T02:11:52.559Z,7.43
2022-07-29T02:14:25.573Z,6.20
2022-07-29T02:16:59.327Z,5.50
2022-07-29T02:19:34.261Z,6.67
2022-07-29T02:22:08.144Z,5.97
2022-07-29T02:24:41.286Z,6.30
2022-07-29T02:27:14.062Z,6.40
2022-07-29T02:29:47.867Z,6.37
2022-07-29T02:32:20.439Z,7.27
2022-07-29T02:34:52.943Z,7.13
2022-07-29T02:37:25.093Z,6.30
2022-07-29T02:39:58.500Z,6.80
2022-07-29T02:42:30.045Z,7.00
2022-07-29T02:45:01.003Z,7.33
2022-07-29T02:47:44.391Z,7.30
2022-07-29T02:50:20.321Z,8.60
2022-07-29T02:53:02.215Z,8.40
2022-07-29T02:55:47.465Z,8.20
2022-07-29T02:58:33.925Z,7.97
2022-07-29T03:01:14.797Z,7.20
2022-07-29T03:03:50.127Z,7.60
2022-07-29T03:06:38.162Z,7.53
2022-07-29T03:09:13.611Z,8.50
2022-07-29T03:11:49.816Z,7.33
2022-07-29T03:14:23.922Z,7.70
2022-07-29T03:16:55.012Z,9.00
2022-07-29T03:19:27.201Z,7.80
2022-07-29T03:21:59.848Z,7.90
2022-07-29T03:24:37.250Z,7.80
2022-07-29T03:27:08.180Z,7.37
2022-07-29T03:29:39.189Z,7.70
2022-07-29T03:32:10.813Z,6.60
2022-07-29T03:34:41.753Z,8.30
2022-07-29T03:37:12.702Z,7.83
2022-07-29T03:39:45.210Z,7.77
2022-07-29T03:42:20.723Z,7.23
2022-07-29T03:44:53.835Z,6.70
2022-07-29T03:47:50.279Z,6.97
2022-07-29T03:50:22.483Z,6.33
2022-07-29T03:52:53.935Z,8.57
2022-07-29T03:55:25.578Z,8.40
2022-07-29T03:57:58.304Z,7.63
2022-07-29T04:00:30.477Z,7.30
2022-07-29T04:03:03.110Z,7.97
2022-07-29T04:05:34.393Z,7.53
2022-07-29T04:08:05.909Z,8.10
2022-07-29T04:10:37.130Z,7.40
2022-07-29T04:13:08.742Z,7.37
2022-07-29T04:15:39.843Z,8.00
2022-07-29T04:18:11.246Z,8.10
2022-07-29T04:20:42.355Z,6.97
2022-07-29T04:23:13.458Z,6.37
2022-07-29T04:25:45.473Z,7.20
2022-07-29T04:28:16.539Z,7.57
2022-07-29T04:30:49.913Z,7.47
2022-07-29T04:33:21.039Z,7.97
2022-07-29T04:35:52.474Z,9.40
2022-07-29T04:38:26.126Z,8.20
2022-07-29T04:40:57.168Z,7.73
2022-07-29T04:43:28.276Z,8.60
2022-07-29T04:46:08.183Z,8.70
2022-07-29T04:48:39.284Z,8.50
2022-07-29T04:51:10.461Z,8.03
2022-07-29T04:53:42.240Z,7.30
2022-07-29T04:56:13.246Z,7.73
2022-07-29T04:58:44.292Z,6.97
2022-07-29T05:01:15.659Z,8.53
2022-07-29T05:03:46.899Z,7.57
2022-07-29T05:06:17.930Z,6.93
2022-07-29T05:08:49.000Z,6.60
2022-07-29T05:11:22.340Z,8.07
2022-07-29T05:13:55.124Z,7.83
2022-07-29T05:16:26.388Z,7.43
2022-07-29T05:18:57.487Z,8.00
2022-07-29T05:21:28.634Z,7.63
2022-07-29T05:23:59.673Z,8.10
2022-07-29T05:26:30.670Z,6.77
2022-07-29T05:29:01.708Z,6.70
2022-07-29T05:31:33.013Z,6.70
2022-07-29T05:34:04.150Z,4.90
2022-07-29T05:36:35.137Z,5.00
2022-07-29T05:39:06.065Z,5.17
2022-07-29T05:41:37.227Z,4.80
2022-07-29T05:44:08.226Z,5.43
2022-07-29T05:46:39.258Z,4.77
2022-07-29T05:49:10.349Z,6.00
2022-07-29T05:51:57.874Z,6.37
2022-07-29T05:54:28.882Z,5.37
2022-07-29T05:56:59.940Z,5.60
2022-07-29T05:59:30.951Z,6.07
2022-07-29T06:02:02.534Z,5.83
2022-07-29T06:04:34.750Z,6.67
2022-07-29T06:07:06.289Z,5.17
2022-07-29T06:09:37.370Z,5.77
2022-07-29T06:12:08.458Z,4.57
2022-07-29T06:14:39.719Z,4.97
2022-07-29T06:17:12.565Z,5.27
2022-07-29T06:19:43.628Z,4.23
2022-07-29T06:22:17.912Z,4.10
2022-07-29T06:24:48.858Z,3.53
2022-07-29T06:27:19.853Z,4.07
2022-07-29T06:29:50.957Z,3.80
2022-07-29T06:32:22.932Z,3.20
2022-07-29T06:35:24.524Z,3.47
2022-07-29T06:37:49.519Z,2.90
2022-07-29T06:40:43.169Z,2.73
2022-07-29T06:43:14.221Z,2.70
2022-07-29T06:45:45.302Z,2.80
2022-07-29T06:48:16.391Z,3.00
2022-07-29T06:50:47.487Z,2.83
2022-07-29T06:53:18.654Z,3.23
2022-07-29T06:55:49.939Z,2.53
2022-07-29T06:58:21.522Z,2.90
2022-07-29T07:01:05.620Z,3.13
2022-07-29T07:03:36.967Z,3.00
2022-07-29T07:06:11.907Z,2.90
2022-07-29T07:08:45.732Z,2.17
2022-07-29T07:11:16.841Z,2.83
2022-07-29T07:13:47.991Z,2.83
2022-07-29T07:16:19.239Z,3.43
2022-07-29T07:18:50.352Z,3.63
2022-07-29T07:21:21.526Z,3.30
2022-07-29T07:23:52.581Z,5.00
2022-07-29T07:26:23.636Z,3.33
2022-07-29T07:28:54.780Z,3.60
2022-07-29T07:31:26.131Z,2.40
2022-07-29T07:33:57.254Z,2.93
2022-07-29T07:36:28.220Z,3.30
2022-07-29T07:38:59.324Z,5.30
2022-07-29T07:41:32.621Z,2.80
2022-07-29T07:44:03.822Z,3.23
2022-07-29T07:46:34.858Z,3.10
2022-07-29T07:49:05.933Z,2.97
2022-07-29T07:51:37.067Z,3.20
2022-07-29T07:54:09.093Z,5.07
2022-07-29T07:56:40.089Z,3.10
2022-07-29T07:59:11.066Z,3.17
2022-07-29T08:01:48.136Z,3.17
2022-07-29T08:04:28.799Z,4.90
2022-07-29T08:07:01.527Z,3.47
2022-07-29T08:09:32.543Z,3.03
2022-07-29T08:12:05.379Z,2.93
2022-07-29T08:14:36.348Z,3.67
2022-07-29T08:17:07.406Z,4.10
2022-07-29T08:19:38.524Z,3.47
2022-07-29T08:22:09.487Z,2.80
2022-07-29T08:24:53.297Z,3.40
2022-07-29T08:27:43.462Z,4.33
2022-07-29T08:30:16.512Z,4.70
2022-07-29T08:32:54.113Z,3.40
2022-07-29T08:35:26.459Z,3.67
2022-07-29T08:37:57.993Z,3.97
2022-07-29T08:40:30.611Z,3.53
2022-07-29T08:43:09.007Z,3.90
2022-07-29T08:45:49.736Z,3.50
2022-07-29T08:48:23.900Z,3.37
2022-07-29T08:50:57.550Z,4.03
2022-07-29T08:53:29.917Z,3.80
2022-07-29T08:56:01.948Z,3.60
2022-07-29T08:58:36.761Z,3.77
2022-07-29T09:01:12.474Z,4.00
2022-07-29T09:03:46.848Z,3.80
2022-07-29T09:06:19.579Z,4.10
2022-07-29T09:08:51.126Z,3.93
2022-07-29T09:11:22.525Z,4.80
2022-07-29T09:13:53.705Z,4.00
2022-07-29T09:16:44.070Z,4.57
2022-07-29T09:19:28.330Z,4.07
2022-07-29T09:22:03.190Z,4.97
2022-07-29T09:24:46.111Z,3.67
2022-07-29T09:27:27.556Z,3.93
2022-07-29T09:30:13.710Z,4.10
2022-07-29T09:33:11.524Z,4.60
2022-07-29T09:35:42.620Z,4.63
2022-07-29T09:38:28.335Z,4.97
2022-07-29T09:41:05.459Z,5.30
2022-07-29T09:43:36.732Z,3.87
2022-07-29T09:46:16.836Z,4.80
2022-07-29T09:49:13.785Z,3.83
2022-07-29T09:51:44.936Z,4.57
2022-07-29T09:54:29.103Z,4.57
2022-07-29T09:57:00.202Z,5.30
2022-07-29T09:59:31.425Z,4.67
2022-07-29T10:02:02.882Z,4.93
2022-07-29T10:04:43.811Z,4.70
2022-07-29T10:07:15.035Z,5.00
2022-07-29T10:09:57.756Z,5.97
2022-07-29T10:12:28.928Z,5.93
2022-07-29T10:15:03.656Z,3.90
2022-07-29T10:17:34.899Z,5.37
2022-07-29T10:20:07.039Z,4.80
2022-07-29T10:22:53.089Z,5.03
2022-07-29T10:25:26.038Z,4.90
2022-07-29T10:27:57.281Z,5.30
2022-07-29T10:30:28.681Z,4.80
2022-07-29T10:33:22.471Z,4.77
2022-07-29T10:35:59.179Z,4.80
2022-07-29T10:38:53.884Z,5.60
2022-07-29T10:41:53.252Z,4.70
2022-07-29T10:44:26.452Z,6.13
2022-07-29T10:46:57.753Z,5.10
2022-07-29T10:49:31.098Z,5.83
2022-07-29T10:52:11.671Z,5.40
2022-07-29T10:54:52.290Z,5.70
2022-07-29T10:57:53.185Z,5.23
2022-07-29T11:00:30.658Z,6.13
2022-07-29T11:05:59.892Z,5.60
2022-07-29T11:08:31.866Z,8.93
2022-07-29T11:11:22.159Z,5.87
2022-07-29T11:13:57.634Z,5.93
2022-07-29T11:17:00.957Z,6.53
2022-07-29T11:19:32.595Z,7.17
2022-07-29T11:22:04.694Z,6.83
2022-07-29T11:24:36.951Z,5.70
2022-07-29T11:30:07.420Z,6.07
2022-07-29T11:32:44.734Z,6.30
2022-07-29T11:35:37.954Z,8.53
2022-07-29T11:38:29.157Z,6.43
2022-07-29T11:41:27.356Z,6.50
2022-07-29T11:44:00.790Z,7.07
2022-07-29T11:46:53.948Z,7.97
2022-07-29T11:52:20.494Z,6.90
2022-07-29T11:55:00.841Z,7.30
2022-07-29T11:58:03.939Z,7.43
2022-07-29T12:00:41.757Z,6.13
2022-07-29T12:03:13.037Z,4.70
2022-07-29T12:05:48.234Z,5.67
2022-07-29T12:07:02.108Z,6.47
2022-07-29T12:08:23.935Z,4.70
2022-07-29T12:10:55.001Z,5.90
2022-07-29T12:13:37.557Z,5.10
2022-07-29T12:16:09.390Z,5.37
2022-07-29T12:18:58.010Z,4.50
2022-07-29T12:21:29.825Z,3.70
2022-07-29T12:24:08.890Z,4.00
2022-07-29T12:27:00.505Z,3.80
2022-07-29T12:29:34.797Z,4.00
2022-07-29T12:32:14.728Z,3.23
2022-07-29T12:34:51.150Z,3.13
2022-07-29T12:37:33.365Z,3.07
2022-07-29T12:40:17.656Z,3.13
2022-07-29T12:43:13.703Z,2.70
2022-07-29T12:45:51.671Z,2.53
2022-07-29T12:48:41.171Z,2.77
2022-07-29T12:51:15.389Z,3.30
2022-07-29T12:54:17.302Z,2.63
2022-07-29T12:57:00.817Z,2.77
2022-07-29T12:59:32.674Z,2.97
2022-07-29T13:02:03.967Z,2.90
2022-07-29T13:04:37.588Z,2.57
2022-07-29T13:07:10.373Z,3.53
2022-07-29T13:09:45.019Z,4.53
2022-07-29T13:12:17.074Z,6.97
2022-07-29T13:14:50.321Z,5.57
2022-07-29T13:17:24.192Z,5.63
2022-07-29T13:20:10.285Z,4.87
2022-07-29T13:22:46.415Z,4.83
2022-07-29T13:25:35.370Z,4.07
2022-07-29T13:28:06.402Z,3.00
2022-07-29T13:30:37.494Z,3.53
2022-07-29T13:33:15.651Z,3.73
2022-07-29T13:35:46.721Z,4.83
2022-07-29T13:38:18.009Z,4.03
2022-07-29T13:40:49.132Z,4.50
2022-07-29T13:43:20.151Z,3.80
2022-07-29T13:45:51.222Z,4.70
2022-07-29T13:48:22.272Z,4.77
2022-07-29T13:50:53.339Z,4.97
2022-07-29T13:53:27.013Z,4.80
2022-07-29T13:55:58.383Z,3.50
2022-07-29T13:58:29.436Z,4.43
2022-07-29T14:01:01.061Z,4.93
2022-07-29T14:03:32.539Z,4.63
2022-07-29T14:06:03.680Z,4.90
2022-07-29T14:08:34.651Z,4.73
2022-07-29T14:11:05.669Z,3.83
2022-07-29T14:13:36.844Z,4.43
2022-07-29T14:16:08.132Z,5.10
2022-07-29T14:18:39.166Z,3.83
2022-07-29T14:21:10.363Z,4.40
2022-07-29T14:23:42.333Z,4.60
2022-07-29T14:26:15.953Z,4.17
2022-07-29T14:28:52.617Z,4.93
2022-07-29T14:31:24.123Z,4.07
2022-07-29T14:33:56.417Z,4.77
2022-07-29T14:36:29.905Z,5.20
2022-07-29T14:39:01.828Z,4.40
2022-07-29T14:41:33.094Z,4.43
2022-07-29T14:44:04.486Z,4.93
2022-07-29T14:46:35.665Z,5.77
2022-07-29T14:49:06.964Z,5.10
2022-07-29T14:51:41.971Z,6.17
2022-07-29T14:54:13.171Z,4.70
2022-07-29T14:56:46.624Z,3.90
2022-07-29T14:59:18.136Z,4.93
2022-07-29T15:01:49.431Z,5.13
2022-07-29T15:04:21.152Z,4.60
2022-07-29T15:06:52.930Z,4.73
2022-07-29T15:09:24.118Z,4.30
2022-07-29T15:11:55.449Z,4.50
2022-07-29T15:14:26.559Z,4.80
2022-07-29T15:16:57.641Z,5.83
2022-07-29T15:19:28.744Z,5.07
2022-07-29T15:22:01.432Z,5.23
2022-07-29T15:24:32.857Z,5.30
2022-07-29T15:27:04.118Z,6.47
2022-07-29T15:29:35.270Z,7.83
2022-07-29T15:32:06.892Z,6.20
2022-07-29T15:34:40.296Z,5.87
2022-07-29T15:37:12.458Z,5.50
2022-07-29T15:39:43.512Z,6.70
2022-07-29T15:42:14.569Z,6.43
2022-07-29T15:44:48.884Z,6.30
2022-07-29T15:47:19.979Z,7.57
2022-07-29T15:49:51.875Z,6.00
2022-07-29T15:52:25.797Z,6.30
2022-07-29T15:54:58.106Z,5.67
2022-07-29T15:57:29.193Z,5.73
2022-07-29T16:00:00.458Z,5.50
2022-07-29T16:02:31.778Z,6.60
2022-07-29T16:05:02.968Z,5.33
2022-07-29T16:07:34.068Z,6.33
2022-07-29T16:10:07.877Z,6.10
2022-07-29T16:12:38.929Z,6.70
2022-07-29T16:15:10.968Z,7.40
2022-07-29T16:17:42.021Z,6.67
2022-07-29T16:20:13.860Z,6.00
2022-07-29T16:22:45.273Z,5.40
2022-07-29T16:25:16.194Z,4.70
2022-07-29T16:27:47.318Z,5.30
2022-07-29T16:30:18.449Z,5.60
2022-07-29T16:32:49.502Z,5.37
2022-07-29T16:35:20.581Z,4.60
2022-07-29T16:37:51.684Z,5.53
2022-07-29T16:40:22.858Z,6.13
2022-07-29T16:42:53.976Z,6.50
2022-07-29T16:45:25.309Z,6.40
2022-07-29T16:48:01.133Z,7.93
2022-07-29T16:50:32.761Z,6.60
2022-07-29T16:53:03.795Z,6.23
2022-07-29T16:55:35.091Z,6.00
2022-07-29T16:58:06.255Z,6.27
2022-07-29T17:00:37.837Z,4.70
2022-07-29T17:03:08.890Z,6.37
2022-07-29T17:05:50.698Z,6.10
2022-07-29T17:08:25.099Z,5.93
2022-07-29T17:10:56.111Z,6.00
2022-07-29T17:13:27.045Z,5.60
2022-07-29T17:16:00.658Z,6.33
2022-07-29T17:18:31.979Z,6.10
2022-07-29T17:21:03.104Z,5.57
2022-07-29T17:23:34.037Z,5.60
2022-07-29T17:26:04.931Z,6.00
2022-07-29T17:28:35.856Z,6.57
2022-07-29T17:31:07.214Z,5.50
2022-07-29T17:33:38.181Z,6.47
2022-07-29T17:36:24.816Z,5.47
2022-07-29T17:39:02.816Z,4.90
2022-07-29T17:41:34.705Z,5.63
2022-07-29T17:44:05.690Z,5.73
2022-07-29T17:46:36.905Z,4.97
2022-07-29T17:49:08.092Z,5.17
2022-07-29T17:51:40.195Z,5.53
2022-07-29T17:54:11.251Z,4.97
2022-07-29T17:56:42.221Z,5.13
2022-07-29T17:59:14.515Z,5.27
2022-07-29T18:01:45.648Z,5.87
2022-07-29T18:04:20.903Z,5.50
2022-07-29T18:06:52.002Z,5.93
2022-07-29T18:09:22.965Z,5.20
2022-07-29T18:11:53.997Z,5.37
2022-07-29T18:14:24.926Z,6.00
2022-07-29T18:16:56.173Z,5.97
2022-07-29T18:19:28.599Z,5.47
2022-07-29T18:22:05.283Z,5.73
2022-07-29T18:24:36.610Z,7.10
2022-07-29T18:27:08.147Z,6.77
2022-07-29T18:29:39.103Z,7.07
2022-07-29T18:32:10.239Z,6.20
2022-07-29T18:34:41.290Z,6.87
2022-07-29T18:37:12.457Z,7.10
2022-07-29T18:39:43.472Z,7.00
2022-07-29T18:42:14.483Z,6.90
2022-07-29T18:44:49.135Z,7.00
2022-07-29T18:47:20.256Z,7.13
2022-07-29T18:49:51.573Z,6.87
2022-07-29T18:52:22.532Z,6.30
2022-07-29T18:54:53.473Z,6.70
2022-07-29T18:57:54.478Z,6.87
2022-07-29T19:00:15.569Z,7.40
2022-07-29T19:02:47.922Z,6.47
2022-07-29T19:05:19.069Z,6.80
2022-07-29T19:07:50.252Z,6.93
2022-07-29T19:10:21.543Z,6.60
2022-07-29T19:12:52.817Z,7.00
2022-07-29T19:15:24.005Z,6.10
2022-07-29T19:18:00.598Z,7.40
2022-07-29T19:20:32.108Z,7.37
2022-07-29T19:23:04.141Z,6.90
2022-07-29T19:25:35.632Z,6.40
2022-07-29T19:28:06.906Z,6.30
2022-07-29T19:30:37.935Z,6.97
2022-07-29T19:33:09.169Z,6.33
2022-07-29T19:35:41.281Z,6.20
2022-07-29T19:38:13.212Z,6.40
2022-07-29T19:40:44.547Z,6.53
2022-07-29T19:43:49.886Z,6.50
2022-07-29T19:46:07.944Z,6.13
2022-07-29T19:48:39.115Z,5.93
2022-07-29T19:51:10.232Z,6.07
2022-07-29T19:53:41.254Z,5.37
2022-07-29T19:56:12.425Z,6.37
2022-07-29T19:58:44.555Z,7.30
2022-07-29T20:01:16.834Z,7.37
2022-07-29T20:03:48.606Z,7.10
2022-07-29T20:06:20.670Z,6.70
2022-07-29T20:08:58.415Z,8.97
2022-07-29T20:11:29.830Z,11.20
2022-07-29T20:14:02.315Z,10.27
2022-07-29T20:16:33.271Z,9.70
2022-07-29T20:19:04.191Z,8.80
2022-07-29T20:21:36.394Z,9.27
2022-07-29T20:24:08.237Z,8.67
2022-07-29T20:26:39.203Z,8.53
2022-07-29T20:29:10.189Z,8.70
2022-07-29T20:31:43.234Z,9.97
2022-07-29T20:34:14.367Z,8.83
2022-07-29T20:36:46.081Z,10.10
2022-07-29T20:39:17.163Z,10.30
2022-07-29T20:41:49.155Z,9.40
2022-07-29T20:44:20.679Z,11.03
2022-07-29T20:46:51.709Z,10.00
2022-07-29T20:49:22.692Z,10.53
2022-07-29T20:51:53.755Z,9.60
2022-07-29T20:54:24.835Z,9.10
2022-07-29T20:56:55.779Z,9.80
2022-07-29T20:59:26.812Z,10.07
2022-07-29T21:01:57.873Z,11.93
2022-07-29T21:04:30.731Z,10.13
2022-07-29T21:07:04.765Z,9.60
2022-07-29T21:09:35.876Z,8.60
2022-07-29T21:12:07.716Z,10.67
2022-07-29T21:14:38.662Z,8.80
2022-07-29T21:17:10.301Z,9.20
2022-07-29T21:19:42.037Z,8.07
2022-07-29T21:22:12.975Z,8.60
2022-07-29T21:24:43.942Z,8.33
2022-07-29T21:27:33.319Z,8.13
2022-07-29T21:30:04.997Z,8.40
2022-07-29T21:32:36.171Z,8.47
2022-07-29T21:35:18.356Z,8.10
2022-07-29T21:37:58.303Z,7.47
2022-07-29T21:40:30.372Z,7.77
2022-07-29T21:43:01.344Z,7.90
2022-07-29T21:45:32.357Z,6.97
2022-07-29T21:48:03.484Z,8.10
2022-07-29T21:50:35.476Z,7.97
2022-07-29T21:53:06.497Z,8.50
2022-07-29T21:55:37.453Z,8.43
2022-07-29T21:58:11.033Z,7.77
2022-07-29T22:00:42.827Z,7.40
2022-07-29T22:03:13.893Z,7.60
2022-07-29T22:05:45.044Z,8.33
2022-07-29T22:08:16.058Z,7.83
2022-07-29T22:10:47.119Z,7.73
2022-07-29T22:13:18.120Z,6.23
2022-07-29T22:15:49.049Z,8.10
2022-07-29T22:18:20.793Z,7.47
2022-07-29T22:20:52.229Z,7.17
2022-07-29T22:23:23.210Z,7.00
2022-07-29T22:25:54.197Z,6.57
2022-07-29T22:28:25.173Z,7.53
2022-07-29T22:30:56.227Z,6.77
2022-07-29T22:33:28.777Z,7.50
2022-07-29T22:35:59.770Z,8.40
2022-07-29T22:38:30.725Z,8.50
2022-07-29T22:41:01.760Z,8.80
2022-07-29T22:43:34.422Z,9.43
2022-07-29T22:46:08.715Z,9.40
2022-07-29T22:48:39.734Z,9.10
2022-07-29T22:51:10.714Z,8.83
2022-07-29T22:53:41.767Z,11.23
2022-07-29T22:56:13.514Z,10.83
2022-07-29T22:58:44.485Z,9.53
2022-07-29T23:01:17.013Z,10.00
2022-07-29T23:04:08.035Z,10.73
2022-07-29T23:06:39.089Z,10.83
2022-07-29T23:09:10.125Z,10.60
2022-07-29T23:11:41.119Z,10.17
2022-07-29T23:14:12.121Z,10.07
2022-07-29T23:16:43.177Z,11.00
2022-07-29T23:19:14.239Z,10.57
2022-07-29T23:21:45.192Z,9.60
2022-07-29T23:24:16.159Z,9.57
2022-07-29T23:26:47.082Z,9.00
2022-07-29T23:29:18.038Z,8.23
2022-07-29T23:31:48.947Z,9.53
2022-07-29T23:34:19.966Z,8.30
2022-07-29T23:36:51.037Z,9.73
2022-07-29T23:39:22.212Z,8.90
2022-07-29T23:41:53.628Z,9.50
2022-07-29T23:44:24.587Z,10.30
2022-07-29T23:46:56.557Z,9.17
2022-07-29T23:49:27.543Z,10.53
2022-07-29T23:51:58.525Z,10.90
2022-07-29T23:54:29.583Z,9.33
2022-07-29T23:57:01.116Z,10.00
2022-07-29T23:59:32.265Z,9.23
